createdAt,value
2019-04-21T00:00:21.053Z,6.93
2019-04-21T00:02:53.660Z,7.70
2019-04-21T00:05:43.151Z,7.17
2019-04-21T00:08:33.334Z,7.10
2019-04-21T00:11:09.489Z,7.43
2019-04-21T00:13:32.881Z,7.20
2019-04-21T00:15:55.893Z,6.63
2019-04-21T00:18:48.500Z,7.07
2019-04-21T00:21:24.378Z,6.87
2019-04-21T00:24:00.334Z,7.33
2019-04-21T00:26:37.674Z,6.90
2019-04-21T00:29:22.588Z,7.03
2019-04-21T00:31:41.984Z,7.50
2019-04-21T00:33:58.360Z,7.20
2019-04-21T00:36:41.740Z,7.17
2019-04-21T00:39:30.144Z,7.43
2019-04-21T00:41:54.681Z,7.17
2019-04-21T00:44:21.510Z,7.50
2019-04-21T00:46:55.770Z,7.10
2019-04-21T00:49:31.969Z,7.27
2019-04-21T00:55:29.261Z,6.83
2019-04-21T00:57:57.156Z,7.03
2019-04-21T01:00:40.611Z,7.50
2019-04-21T01:03:14.771Z,7.40
2019-04-21T01:05:35.249Z,8.47
2019-04-21T01:08:03.083Z,6.90
2019-04-21T01:10:24.544Z,7.63
2019-04-21T01:13:09.366Z,7.70
2019-04-21T01:15:44.521Z,7.00
2019-04-21T01:18:09.265Z,8.07
2019-04-21T01:20:22.176Z,7.93
2019-04-21T01:22:53.734Z,7.20
2019-04-21T01:25:33.045Z,7.23
2019-04-21T01:28:15.126Z,6.70
2019-04-21T01:30:45.683Z,7.47
2019-04-21T01:33:26.064Z,7.07
2019-04-21T01:35:53.719Z,7.60
2019-04-21T01:38:31.616Z,6.77
2019-04-21T01:41:03.814Z,7.10
2019-04-21T01:43:27.584Z,7.53
2019-04-21T01:46:01.700Z,7.37
2019-04-21T01:48:33.264Z,7.93
2019-04-21T01:51:03.807Z,8.30
2019-04-21T01:53:48.591Z,7.27
2019-04-21T01:56:40.475Z,7.93
2019-04-21T01:59:00.791Z,8.07
2019-04-21T02:01:42.463Z,8.03
2019-04-21T02:04:24.506Z,7.17
2019-04-21T02:06:50.528Z,6.67
2019-04-21T02:09:20.170Z,7.47
2019-04-21T02:11:55.058Z,7.17
2019-04-21T02:14:31.182Z,7.00
2019-04-21T02:16:59.632Z,7.63
2019-04-21T02:19:27.852Z,7.17
2019-04-21T02:21:56.706Z,7.57
2019-04-21T02:24:42.304Z,6.63
2019-04-21T02:27:17.392Z,7.07
2019-04-21T02:29:48.674Z,7.50
2019-04-21T02:32:30.374Z,6.77
2019-04-21T02:35:05.613Z,7.90
2019-04-21T02:40:08.421Z,6.90
2019-04-21T02:42:41.630Z,7.30
2019-04-21T02:45:13.889Z,6.93
2019-04-21T02:47:46.566Z,7.97
2019-04-21T02:50:28.737Z,7.27
2019-04-21T02:52:54.102Z,8.07
2019-04-21T02:55:17.793Z,8.10
2019-04-21T02:57:59.504Z,7.20
2019-04-21T03:00:32.831Z,7.63
2019-04-21T03:11:12.233Z,8.10
2019-04-21T03:13:56.814Z,8.20
2019-04-21T03:16:31.142Z,8.03
2019-04-21T03:19:06.870Z,7.93
2019-04-21T03:21:38.662Z,8.13
2019-04-21T03:24:31.260Z,7.13
2019-04-21T03:32:36.516Z,7.80
2019-04-21T03:35:34.485Z,6.97
2019-04-21T03:37:48.090Z,8.30
2019-04-21T03:40:15.252Z,7.40
2019-04-21T03:42:48.107Z,6.67
2019-04-21T03:45:27.145Z,6.60
2019-04-21T03:47:44.876Z,6.83
2019-04-21T03:50:27.847Z,7.00
2019-04-21T03:53:06.856Z,7.70
2019-04-21T03:58:23.947Z,6.90
2019-04-21T04:01:05.586Z,6.77
2019-04-21T04:04:08.440Z,7.00
2019-04-21T04:09:27.309Z,7.50
2019-04-21T04:11:53.066Z,7.83
2019-04-21T04:14:33.497Z,6.73
2019-04-21T04:17:04.762Z,7.40
2019-04-21T04:19:33.072Z,7.23
2019-04-21T04:25:11.466Z,6.17
2019-04-21T04:28:00.123Z,6.67
2019-04-21T04:30:37.895Z,7.13
2019-04-21T04:33:08.153Z,7.13
2019-04-21T04:35:56.086Z,7.37
2019-04-21T04:38:20.147Z,8.03
2019-04-21T04:45:54.063Z,7.67
2019-04-21T04:48:28.532Z,7.07
2019-04-21T04:51:16.947Z,7.17
2019-04-21T04:53:42.757Z,7.33
2019-04-21T04:58:59.514Z,7.37
2019-04-21T05:01:21.601Z,6.73
2019-04-21T05:11:40.176Z,7.77
2019-04-21T05:14:04.549Z,7.40
2019-04-21T05:21:38.660Z,6.97
2019-04-21T05:24:01.247Z,7.03
2019-04-21T05:26:29.915Z,6.87
2019-04-21T05:28:58.878Z,7.87
2019-04-21T05:31:50.905Z,7.60
2019-04-21T05:34:22.051Z,7.80
2019-04-21T05:37:16.466Z,7.20
2019-04-21T05:39:48.962Z,7.23
2019-04-21T05:42:17.129Z,9.83
2019-04-21T05:45:04.335Z,12.13
2019-04-21T05:47:39.797Z,14.53
2019-04-21T05:50:06.423Z,15.17
2019-04-21T05:52:51.614Z,15.30
2019-04-21T05:55:34.314Z,16.13
2019-04-21T05:57:59.925Z,14.90
2019-04-21T06:03:09.895Z,12.23
2019-04-21T06:05:47.913Z,12.30
2019-04-21T06:08:13.180Z,11.13
2019-04-21T06:10:47.681Z,11.50
2019-04-21T06:15:56.177Z,9.93
2019-04-21T06:18:27.094Z,9.40
2019-04-21T06:20:59.830Z,8.93
2019-04-21T06:23:30.050Z,8.63
2019-04-21T06:31:18.090Z,8.83
2019-04-21T06:33:48.908Z,8.80
2019-04-21T06:36:41.424Z,8.07
2019-04-21T06:39:12.062Z,8.50
2019-04-21T06:41:33.927Z,8.30
2019-04-21T06:44:23.684Z,7.27
2019-04-21T06:46:45.689Z,7.70
2019-04-21T06:49:08.335Z,7.00
2019-04-21T06:51:45.299Z,6.70
2019-04-21T06:54:23.915Z,7.10
2019-04-21T06:56:51.550Z,6.83
2019-04-21T06:59:21.118Z,6.97
2019-04-21T07:01:59.782Z,6.77
2019-04-21T07:04:34.361Z,6.33
2019-04-21T07:07:00.082Z,6.17
2019-04-21T07:09:36.392Z,6.87
2019-04-21T07:12:06.202Z,6.27
2019-04-21T07:17:20.317Z,6.57
2019-04-21T07:19:48.408Z,6.63
2019-04-21T07:22:21.456Z,6.50
2019-04-21T07:24:54.046Z,6.67
2019-04-21T07:27:33.925Z,6.10
2019-04-21T07:29:58.539Z,6.80
2019-04-21T07:32:49.750Z,7.27
2019-04-21T07:35:03.920Z,6.83
2019-04-21T07:37:35.616Z,6.97
2019-04-21T07:40:06.580Z,7.30
2019-04-21T07:42:32.585Z,7.00
2019-04-21T07:45:05.149Z,7.33
2019-04-21T07:47:56.546Z,7.03
2019-04-21T07:53:55.716Z,6.53
2019-04-21T07:56:09.346Z,6.60
2019-04-21T07:58:59.153Z,6.90
2019-04-21T08:01:44.113Z,6.40
2019-04-21T08:07:49.221Z,6.60
2019-04-21T08:10:24.289Z,6.50
2019-04-21T08:12:47.288Z,6.90
2019-04-21T08:18:03.748Z,6.60
2019-04-21T08:20:31.372Z,7.10
2019-04-21T08:23:05.952Z,6.10
2019-04-21T08:25:47.723Z,6.70
2019-04-21T08:28:05.928Z,6.63
2019-04-21T08:30:44.457Z,6.63
2019-04-21T08:38:31.313Z,6.23
2019-04-21T08:41:02.008Z,6.80
2019-04-21T08:43:42.704Z,6.63
2019-04-21T08:46:13.825Z,7.00
2019-04-21T08:49:02.615Z,6.10
2019-04-21T08:51:52.001Z,6.67
2019-04-21T08:57:14.643Z,6.77
2019-04-21T09:00:08.353Z,6.40
2019-04-21T09:02:47.496Z,6.50
2019-04-21T09:05:31.125Z,6.03
2019-04-21T09:08:20.250Z,7.00
2019-04-21T09:10:54.693Z,6.37
2019-04-21T09:13:24.769Z,6.00
2019-04-21T09:15:57.981Z,6.40
2019-04-21T09:18:27.321Z,6.60
2019-04-21T09:21:14.947Z,7.20
2019-04-21T09:23:45.278Z,6.73
2019-04-21T09:26:22.800Z,7.00
2019-04-21T09:28:48.049Z,7.20
2019-04-21T09:31:08.258Z,6.47
2019-04-21T09:33:45.207Z,6.27
2019-04-21T09:36:15.255Z,6.97
2019-04-21T09:38:57.666Z,7.00
2019-04-21T09:41:27.439Z,7.17
2019-04-21T09:43:59.300Z,7.20
2019-04-21T09:46:35.456Z,6.30
2019-04-21T09:49:06.505Z,7.47
2019-04-21T09:51:37.079Z,7.10
2019-04-21T09:54:12.387Z,6.57
2019-04-21T09:56:52.107Z,7.00
2019-04-21T09:59:40.323Z,6.73
2019-04-21T10:02:18.156Z,6.60
2019-04-21T10:04:46.211Z,7.33
2019-04-21T10:07:26.420Z,7.40
2019-04-21T10:09:50.128Z,6.93
2019-04-21T10:12:20.806Z,6.80
2019-04-21T10:14:51.883Z,7.07
2019-04-21T10:17:35.115Z,7.37
2019-04-21T10:20:09.430Z,6.90
2019-04-21T10:22:49.010Z,6.47
2019-04-21T10:25:20.824Z,6.10
2019-04-21T10:27:52.763Z,6.43
2019-04-21T10:30:33.139Z,6.97
2019-04-21T10:33:04.114Z,7.03
2019-04-21T10:35:39.281Z,7.07
2019-04-21T10:38:22.775Z,7.00
2019-04-21T10:40:43.742Z,6.13
2019-04-21T10:43:16.492Z,7.07
2019-04-21T10:45:48.826Z,7.07
2019-04-21T10:48:20.992Z,7.47
2019-04-21T10:50:55.305Z,7.37
2019-04-21T10:53:31.758Z,6.63
2019-04-21T10:56:17.548Z,7.83
2019-04-21T10:58:40.458Z,6.60
2019-04-21T11:01:14.397Z,7.00
2019-04-21T11:04:17.295Z,8.17
2019-04-21T11:06:42.248Z,7.77
2019-04-21T11:09:16.337Z,6.97
2019-04-21T11:11:48.722Z,6.57
2019-04-21T11:14:29.348Z,7.40
2019-04-21T11:17:00.579Z,6.80
2019-04-21T11:19:32.759Z,7.13
2019-04-21T11:22:04.749Z,7.03
2019-04-21T11:24:40.825Z,6.93
2019-04-21T11:27:17.011Z,7.47
2019-04-21T11:29:51.700Z,7.77
2019-04-21T11:32:23.144Z,6.77
2019-04-21T11:34:55.035Z,7.53
2019-04-21T11:37:30.541Z,6.80
2019-04-21T11:40:07.407Z,8.17
2019-04-21T11:42:37.991Z,8.07
2019-04-21T11:45:10.486Z,7.67
2019-04-21T11:47:50.171Z,7.70
2019-04-21T11:50:21.217Z,7.40
2019-04-21T11:52:52.825Z,7.90
2019-04-21T11:55:34.281Z,7.30
2019-04-21T11:58:01.869Z,7.53
2019-04-21T12:01:12.088Z,7.23
2019-04-21T12:03:45.347Z,6.77
2019-04-21T12:06:32.272Z,6.93
2019-04-21T12:09:46.218Z,6.63
2019-04-21T12:12:17.222Z,7.10
2019-04-21T12:14:48.042Z,5.90
2019-04-21T12:17:21.979Z,6.20
2019-04-21T12:20:30.591Z,6.80
2019-04-21T12:23:54.420Z,6.90
2019-04-21T12:26:28.337Z,6.37
2019-04-21T12:29:08.230Z,6.10
2019-04-21T12:31:57.242Z,6.57
2019-04-21T12:34:28.155Z,6.80
2019-04-21T12:37:01.191Z,6.57
2019-04-21T12:39:36.895Z,6.33
2019-04-21T12:42:12.238Z,6.97
2019-04-21T12:44:43.409Z,6.27
2019-04-21T12:47:14.336Z,6.97
2019-04-21T12:49:45.571Z,6.73
2019-04-21T12:52:17.629Z,6.53
2019-04-21T12:54:51.461Z,5.27
2019-04-21T12:57:25.516Z,6.17
2019-04-21T12:59:57.153Z,6.17
2019-04-21T13:02:31.703Z,6.33
2019-04-21T13:05:03.984Z,6.10
2019-04-21T13:07:35.488Z,6.30
2019-04-21T13:10:06.666Z,5.73
2019-04-21T13:12:37.973Z,5.60
2019-04-21T13:15:09.117Z,5.60
2019-04-21T13:17:47.237Z,6.07
2019-04-21T13:20:40.134Z,6.47
2019-04-21T13:23:13.801Z,5.60
2019-04-21T13:25:49.754Z,5.90
2019-04-21T13:28:21.315Z,6.27
2019-04-21T13:30:51.743Z,5.63
2019-04-21T13:33:22.954Z,5.87
2019-04-21T13:36:00.565Z,6.70
2019-04-21T13:39:26.232Z,6.50
2019-04-21T13:41:37.964Z,6.50
2019-04-21T13:44:17.823Z,6.00
2019-04-21T13:46:49.872Z,6.13
2019-04-21T13:49:39.237Z,6.20
2019-04-21T13:52:16.783Z,6.30
2019-04-21T13:54:49.639Z,5.60
2019-04-21T13:57:20.799Z,5.97
2019-04-21T13:59:59.360Z,6.03
2019-04-21T14:02:30.982Z,5.97
2019-04-21T14:05:03.374Z,6.00
2019-04-21T14:07:34.449Z,6.23
2019-04-21T14:10:08.961Z,5.57
2019-04-21T14:12:42.536Z,6.00
2019-04-21T14:15:14.716Z,5.77
2019-04-21T14:17:53.263Z,5.10
2019-04-21T14:20:25.081Z,6.07
2019-04-21T14:23:13.670Z,5.97
2019-04-21T14:25:35.471Z,5.57
2019-04-21T14:28:10.259Z,6.30
2019-04-21T14:30:40.982Z,5.43
2019-04-21T14:33:25.638Z,5.60
2019-04-21T14:35:56.845Z,5.50
2019-04-21T14:38:28.893Z,5.30
2019-04-21T14:41:02.061Z,5.50
2019-04-21T14:43:34.176Z,4.90
2019-04-21T14:46:21.547Z,5.27
2019-04-21T14:49:21.288Z,4.53
2019-04-21T14:51:59.369Z,4.80
2019-04-21T14:54:48.944Z,5.37
2019-04-21T14:57:21.109Z,4.87
2019-04-21T14:59:55.199Z,5.07
2019-04-21T15:02:29.875Z,4.63
2019-04-21T15:05:04.009Z,4.80
2019-04-21T15:07:35.213Z,5.47
2019-04-21T15:10:14.294Z,4.37
2019-04-21T15:12:41.951Z,4.87
2019-04-21T15:15:27.821Z,4.70
2019-04-21T15:17:59.846Z,4.67
2019-04-21T15:20:30.983Z,4.63
2019-04-21T15:23:02.140Z,4.63
2019-04-21T15:25:34.414Z,5.17
2019-04-21T15:28:07.448Z,4.23
2019-04-21T15:30:38.642Z,4.40
2019-04-21T15:33:12.701Z,4.27
2019-04-21T15:35:44.895Z,4.13
2019-04-21T15:38:17.888Z,4.27
2019-04-21T15:40:56.091Z,4.47
2019-04-21T15:43:24.520Z,4.10
2019-04-21T15:45:55.166Z,4.00
2019-04-21T15:48:28.940Z,4.70
2019-04-21T15:51:01.981Z,4.30
2019-04-21T15:53:45.934Z,3.73
2019-04-21T15:56:24.552Z,4.10
2019-04-21T15:59:14.797Z,3.80
2019-04-21T16:01:56.697Z,3.97
2019-04-21T16:04:28.722Z,4.00
2019-04-21T16:07:03.652Z,3.90
2019-04-21T16:09:37.879Z,4.40
2019-04-21T16:12:17.816Z,4.00
2019-04-21T16:14:47.375Z,4.53
2019-04-21T16:17:19.211Z,3.90
2019-04-21T16:20:02.136Z,4.50
2019-04-21T16:22:36.797Z,3.70
2019-04-21T16:25:08.605Z,3.70
2019-04-21T16:27:39.434Z,3.73
2019-04-21T16:30:12.125Z,3.63
2019-04-21T16:32:44.205Z,3.30
2019-04-21T16:35:16.464Z,3.30
2019-04-21T16:38:23.680Z,3.70
2019-04-21T16:41:01.002Z,2.90
2019-04-21T16:43:33.314Z,3.53
2019-04-21T16:46:04.668Z,3.07
2019-04-21T16:48:49.349Z,3.80
2019-04-21T16:51:22.232Z,3.47
2019-04-21T16:54:01.957Z,3.47
2019-04-21T16:56:47.913Z,3.57
2019-04-21T16:59:42.332Z,2.93
2019-04-21T17:02:14.427Z,3.37
2019-04-21T17:04:54.272Z,3.20
2019-04-21T17:07:26.158Z,3.03
2019-04-21T17:10:10.693Z,3.03
2019-04-21T17:12:45.489Z,3.27
2019-04-21T17:15:33.778Z,3.10
2019-04-21T17:18:22.717Z,3.47
2019-04-21T17:20:46.705Z,3.10
2019-04-21T17:23:11.499Z,3.07
2019-04-21T17:25:47.553Z,3.00
2019-04-21T17:28:19.615Z,3.50
2019-04-21T17:30:50.921Z,3.03
2019-04-21T17:33:26.503Z,2.77
2019-04-21T17:35:56.777Z,2.70
2019-04-21T17:38:28.015Z,2.80
2019-04-21T17:41:10.354Z,2.57
2019-04-21T17:43:39.560Z,2.90
2019-04-21T17:50:41.311Z,3.20
2019-04-21T17:53:16.192Z,3.40
2019-04-21T17:56:19.623Z,2.60
2019-04-21T17:58:52.694Z,3.10
2019-04-21T18:01:26.567Z,3.00
2019-04-21T18:04:03.604Z,3.17
2019-04-21T18:07:26.186Z,3.00
2019-04-21T18:10:00.469Z,3.10
2019-04-21T18:12:33.387Z,3.03
2019-04-21T18:15:16.336Z,3.17
2019-04-21T18:17:32.239Z,3.00
2019-04-21T18:20:03.899Z,3.27
2019-04-21T18:22:54.702Z,3.10
2019-04-21T18:25:44.401Z,2.90
2019-04-21T18:28:04.946Z,2.63
2019-04-21T18:30:48.937Z,3.00
2019-04-21T18:33:27.227Z,3.27
2019-04-21T18:36:15.828Z,3.30
2019-04-21T18:39:12.175Z,3.17
2019-04-21T18:41:34.588Z,3.50
2019-04-21T18:44:36.459Z,3.40
2019-04-21T18:47:16.845Z,3.13
2019-04-21T18:49:41.915Z,3.10
2019-04-21T18:52:26.764Z,3.43
2019-04-21T18:55:08.087Z,3.73
2019-04-21T18:57:35.296Z,3.53
2019-04-21T19:00:13.296Z,3.63
2019-04-21T19:02:45.291Z,3.97
2019-04-21T19:05:16.040Z,3.80
2019-04-21T19:08:05.202Z,3.33
2019-04-21T19:10:45.339Z,3.30
2019-04-21T19:16:11.083Z,3.93
2019-04-21T19:21:04.428Z,4.27
2019-04-21T19:23:47.234Z,3.93
2019-04-21T19:26:21.708Z,4.20
2019-04-21T19:28:57.003Z,4.20
2019-04-21T19:31:38.511Z,4.70
2019-04-21T19:34:06.109Z,4.47
2019-04-21T19:36:33.157Z,5.10
2019-04-21T19:39:34.977Z,4.30
2019-04-21T19:42:12.064Z,4.70
2019-04-21T19:44:47.186Z,3.97
2019-04-21T19:47:28.151Z,4.10
2019-04-21T19:50:11.192Z,3.87
2019-04-21T19:52:44.051Z,3.97
2019-04-21T19:55:11.914Z,4.23
2019-04-21T19:57:47.459Z,4.30
2019-04-21T20:00:19.324Z,4.43
2019-04-21T20:02:54.512Z,3.73
2019-04-21T20:05:39.594Z,4.10
2019-04-21T20:08:22.192Z,3.73
2019-04-21T20:10:59.407Z,4.00
2019-04-21T20:13:45.338Z,3.63
2019-04-21T20:16:19.124Z,4.20
2019-04-21T20:18:36.959Z,4.23
2019-04-21T20:21:02.044Z,4.00
2019-04-21T20:23:43.251Z,3.77
2019-04-21T20:26:17.398Z,3.97
2019-04-21T20:29:02.479Z,3.90
2019-04-21T20:31:39.749Z,4.03
2019-04-21T20:34:17.785Z,3.83
2019-04-21T20:36:51.083Z,3.70
2019-04-21T20:39:12.085Z,3.73
2019-04-21T20:41:49.916Z,4.13
2019-04-21T20:44:29.572Z,4.37
2019-04-21T20:47:02.323Z,3.80
2019-04-21T20:49:27.476Z,4.17
2019-04-21T20:52:13.886Z,4.10
2019-04-21T20:54:41.004Z,3.83
2019-04-21T20:57:18.991Z,4.03
2019-04-21T20:59:51.109Z,3.80
2019-04-21T21:02:28.447Z,4.23
2019-04-21T21:04:49.845Z,3.83
2019-04-21T21:07:53.585Z,3.70
2019-04-21T21:10:10.980Z,3.60
2019-04-21T21:12:57.572Z,3.63
2019-04-21T21:15:24.628Z,4.27
2019-04-21T21:18:01.431Z,3.73
2019-04-21T21:20:30.534Z,3.20
2019-04-21T21:22:57.467Z,3.90
2019-04-21T21:25:41.911Z,4.10
2019-04-21T21:27:58.202Z,3.53
2019-04-21T21:30:41.465Z,3.63
2019-04-21T21:33:22.005Z,4.10
2019-04-21T21:35:46.705Z,3.90
2019-04-21T21:38:28.079Z,2.93
2019-04-21T21:40:57.227Z,3.00
2019-04-21T21:43:23.617Z,3.40
2019-04-21T21:46:04.810Z,3.50
2019-04-21T21:48:44.947Z,3.50
2019-04-21T21:51:18.079Z,3.67
2019-04-21T21:53:38.749Z,3.30
2019-04-21T21:56:14.569Z,3.27
2019-04-21T21:58:53.857Z,3.40
2019-04-21T22:01:36.581Z,3.40
2019-04-21T22:04:09.183Z,4.03
2019-04-21T22:06:42.036Z,3.20
2019-04-21T22:09:10.328Z,3.40
2019-04-21T22:11:42.184Z,3.40
2019-04-21T22:14:22.872Z,3.30
2019-04-21T22:16:59.332Z,3.20
2019-04-21T22:19:48.968Z,3.20
2019-04-21T22:22:11.541Z,3.20
2019-04-21T22:24:41.745Z,3.30
2019-04-21T22:26:59.303Z,3.40
2019-04-21T22:29:38.185Z,3.30
2019-04-21T22:32:10.154Z,3.23
2019-04-21T22:34:48.685Z,3.80
2019-04-21T22:37:25.946Z,3.17
2019-04-21T22:39:57.883Z,3.13
2019-04-21T22:42:26.616Z,2.97
2019-04-21T22:44:52.451Z,3.40
2019-04-21T22:47:26.874Z,3.53
2019-04-21T22:49:56.780Z,3.37
2019-04-21T22:52:29.659Z,3.37
2019-04-21T22:55:08.242Z,3.27
2019-04-21T22:57:42.844Z,3.70
2019-04-21T23:00:11.849Z,3.50
2019-04-21T23:02:42.747Z,3.30
2019-04-21T23:05:15.573Z,3.00
2019-04-21T23:07:50.239Z,3.50
2019-04-21T23:10:19.187Z,3.17
2019-04-21T23:12:52.162Z,3.13
2019-04-21T23:15:45.527Z,3.47
2019-04-21T23:18:28.870Z,3.00
2019-04-21T23:21:03.419Z,3.60
2019-04-21T23:23:35.840Z,2.90
2019-04-21T23:26:04.688Z,3.70
2019-04-21T23:28:40.171Z,3.50
2019-04-21T23:31:11.068Z,3.50
2019-04-21T23:33:25.766Z,3.30
2019-04-21T23:36:03.745Z,3.70
2019-04-21T23:38:38.770Z,3.40
2019-04-21T23:41:05.348Z,3.40
2019-04-21T23:43:35.451Z,3.13
2019-04-21T23:46:11.878Z,3.20
2019-04-21T23:48:59.438Z,3.77
2019-04-21T23:51:25.741Z,3.60
2019-04-21T23:53:44.587Z,3.90
2019-04-21T23:56:30.034Z,3.60
2019-04-21T23:58:59.847Z,3.57
